Time;durP1;ratioP1;P1;durP2;ratioP2;P2;SDS_P1;SDS_P2;PMS_P1;PMS_P2;Temp;Humidity;BMP_temperature;BMP_pressure;BME280_temperature;BME280_humidity;BME280_pressure;Samples;Min_cycle;Max_cycle;Signal;HPM_P1;HPM_P2
2022/04/13 00:01:13;;;;;;;21.37;5.17;;;;;;;;;;5074232;28;20214;-83
2022/04/13 00:03:41;;;;;;;9.30;4.63;;;;;;;;;;5067772;28;20666;-83
2022/04/13 00:06:08;;;;;;;11.40;5.20;;;;;;;;;;5068592;28;20444;-83
2022/04/13 00:08:35;;;;;;;9.43;4.60;;;;;;;;;;5071320;28;20230;-83
2022/04/13 00:11:05;;;;;;;10.13;4.90;;;;;;;;;;5065522;28;20206;-83
2022/04/13 00:13:32;;;;;;;11.77;4.67;;;;;;;;;;5073908;28;20198;-83
2022/04/13 00:16:01;;;;;;;11.80;4.77;;;;;;;;;;5065637;28;20226;-83
2022/04/13 00:18:28;;;;;;;9.93;4.50;;;;;;;;;;5063022;28;20317;-81
2022/04/13 00:20:55;;;;;;;10.33;4.33;;;;;;;;;;5067018;28;20293;-83
2022/04/13 00:23:23;;;;;;;10.60;4.53;;;;;;;;;;5069674;28;20213;-83
2022/04/13 00:25:50;;;;;;;11.23;4.77;;;;;;;;;;5065775;28;20226;-83
2022/04/13 00:28:18;;;;;;;11.30;4.90;;;;;;;;;;5063397;28;20249;-83
2022/04/13 00:30:46;;;;;;;12.87;5.07;;;;;;;;;;5066934;28;20606;-83
2022/04/13 00:33:14;;;;;;;14.67;4.93;;;;;;;;;;5063264;28;20206;-83
2022/04/13 00:35:41;;;;;;;8.00;4.20;;;;;;;;;;5066201;28;21482;-83
2022/04/13 00:38:08;;;;;;;9.63;4.30;;;;;;;;;;5069158;28;20229;-83
2022/04/13 00:40:39;;;;;;;9.93;4.20;;;;;;;;;;5062019;28;20277;-83
2022/04/13 00:43:06;;;;;;;11.20;4.40;;;;;;;;;;5066346;28;20202;-82
2022/04/13 00:45:34;;;;;;;10.20;4.90;;;;;;;;;;5064667;28;20221;-83
2022/04/13 00:48:02;;;;;;;11.83;5.30;;;;;;;;;;5065565;28;20595;-82
2022/04/13 00:50:31;;;;;;;9.97;4.90;;;;;;;;;;5067396;28;20645;-83
2022/04/13 00:53:00;;;;;;;14.63;4.77;;;;;;;;;;5065142;28;20206;-83
2022/04/13 00:55:27;;;;;;;9.37;4.50;;;;;;;;;;5066667;28;20272;-82
2022/04/13 00:57:58;;;;;;;12.63;4.97;;;;;;;;;;5065947;28;20206;-83
2022/04/13 01:00:25;;;;;;;16.10;5.07;;;;;;;;;;5065595;28;20214;-83
2022/04/13 01:02:54;;;;;;;11.23;4.90;;;;;;;;;;5061475;28;21042;-83
2022/04/13 01:05:22;;;;;;;9.77;4.33;;;;;;;;;;5065152;28;20735;-82
2022/04/13 01:07:52;;;;;;;9.37;4.03;;;;;;;;;;5063279;28;20301;-83
2022/04/13 01:10:19;;;;;;;9.03;4.50;;;;;;;;;;5066421;28;20230;-82
2022/04/13 01:12:46;;;;;;;9.67;4.50;;;;;;;;;;5063873;28;20226;-83
2022/04/13 01:15:17;;;;;;;9.73;4.97;;;;;;;;;;5063508;28;20210;-82
2022/04/13 01:17:46;;;;;;;10.80;4.53;;;;;;;;;;5063231;28;20201;-82
2022/04/13 01:20:13;;;;;;;12.00;4.73;;;;;;;;;;5064508;28;20206;-83
2022/04/13 01:22:42;;;;;;;11.60;4.83;;;;;;;;;;5063735;28;20563;-83
2022/04/13 01:25:10;;;;;;;10.47;4.80;;;;;;;;;;5064707;28;20428;-83
2022/04/13 01:27:37;;;;;;;7.67;4.00;;;;;;;;;;5066839;28;20218;-84
2022/04/13 01:30:08;;;;;;;7.80;4.00;;;;;;;;;;5064310;28;20206;-82
2022/04/13 01:32:36;;;;;;;13.03;4.77;;;;;;;;;;5065766;28;20198;-83
2022/04/13 01:35:03;;;;;;;8.77;4.30;;;;;;;;;;5061722;28;20211;-83
2022/04/13 01:37:30;;;;;;;10.70;4.80;;;;;;;;;;5063696;28;20630;-82
2022/04/13 01:39:59;;;;;;;15.67;4.60;;;;;;;;;;5063913;28;20207;-83
2022/04/13 01:42:26;;;;;;;8.33;4.27;;;;;;;;;;5061618;28;20526;-81
2022/04/13 01:44:53;;;;;;;10.40;4.23;;;;;;;;;;5064648;28;20226;-82
2022/04/13 01:47:20;;;;;;;8.07;4.63;;;;;;;;;;5064290;28;20285;-82
2022/04/13 01:49:47;;;;;;;11.37;4.80;;;;;;;;;;5062440;28;20202;-82
2022/04/13 01:52:15;;;;;;;14.20;4.63;;;;;;;;;;5065393;28;20300;-83
2022/04/13 01:54:42;;;;;;;11.57;4.93;;;;;;;;;;5064187;28;20203;-83
2022/04/13 01:57:10;;;;;;;13.47;4.87;;;;;;;;;;5064013;28;20234;-82
2022/04/13 01:59:37;;;;;;;8.47;4.40;;;;;;;;;;5065986;28;20209;-83
2022/04/13 02:02:05;;;;;;;11.27;3.90;;;;;;;;;;5062915;28;20209;-82
2022/04/13 02:04:32;;;;;;;11.20;4.63;;;;;;;;;;5069099;28;20210;-86
2022/04/13 02:07:00;;;;;;;24.10;4.70;;;;;;;;;;5066214;28;20292;-84
2022/04/13 02:09:27;;;;;;;9.90;4.50;;;;;;;;;;5072196;28;20233;-82
2022/04/13 02:11:54;;;;;;;11.07;4.60;;;;;;;;;;5064337;28;20278;-83
2022/04/13 02:14:23;;;;;;;14.47;5.23;;;;;;;;;;5063953;28;20265;-83
2022/04/13 02:16:50;;;;;;;12.23;4.73;;;;;;;;;;5067078;28;20318;-81
2022/04/13 02:19:17;;;;;;;9.07;4.70;;;;;;;;;;5063142;28;20194;-83
2022/04/13 02:21:45;;;;;;;11.90;5.23;;;;;;;;;;5062570;28;20517;-83
2022/04/13 02:24:12;;;;;;;14.90;5.53;;;;;;;;;;5057861;28;20545;-83
2022/04/13 02:26:39;;;;;;;10.63;4.80;;;;;;;;;;5062035;28;20356;-84
2022/04/13 02:29:06;;;;;;;8.93;4.60;;;;;;;;;;5065486;28;20236;-83
2022/04/13 02:31:35;;;;;;;12.30;4.80;;;;;;;;;;5061114;28;20202;-83
2022/04/13 02:34:04;;;;;;;12.37;4.53;;;;;;;;;;5060676;28;20230;-83
2022/04/13 02:36:31;;;;;;;8.30;4.47;;;;;;;;;;5062564;28;20660;-82
2022/04/13 02:38:58;;;;;;;10.97;5.10;;;;;;;;;;5064276;28;20217;-83
2022/04/13 02:41:25;;;;;;;12.87;4.83;;;;;;;;;;5068135;28;20209;-83
2022/04/13 02:43:53;;;;;;;10.70;4.67;;;;;;;;;;5061443;28;20308;-82
2022/04/13 02:46:20;;;;;;;13.70;4.57;;;;;;;;;;5061936;28;20214;-82
2022/04/13 02:48:48;;;;;;;8.20;4.20;;;;;;;;;;5061377;28;20231;-83
2022/04/13 02:51:15;;;;;;;10.30;4.47;;;;;;;;;;5065005;28;20206;-83
2022/04/13 02:53:42;;;;;;;11.30;5.07;;;;;;;;;;5064198;28;20210;-83
2022/04/13 02:56:10;;;;;;;9.97;5.03;;;;;;;;;;5059656;28;20724;-83
2022/04/13 02:58:37;;;;;;;9.50;4.97;;;;;;;;;;5059575;28;20225;-82
2022/04/13 03:01:06;;;;;;;12.67;4.47;;;;;;;;;;5057109;28;20586;-82
2022/04/13 03:03:33;;;;;;;12.17;4.63;;;;;;;;;;5059118;28;20210;-82
2022/04/13 03:09:33;;;;;;;12.13;4.20;;;;;;;;;;5061630;28;20231;-83
2022/04/13 03:12:08;;;;;;;12.47;4.40;;;;;;;;;;5057075;28;20208;-82
2022/04/13 03:14:35;;;;;;;8.83;4.00;;;;;;;;;;5064354;28;20203;-82
2022/04/13 03:17:02;;;;;;;8.60;3.97;;;;;;;;;;5062614;28;20224;-82
2022/04/13 03:19:31;;;;;;;7.97;3.70;;;;;;;;;;5064516;28;20211;-82
2022/04/13 03:21:58;;;;;;;6.57;3.53;;;;;;;;;;5054123;28;20221;-82
2022/04/13 03:24:27;;;;;;;9.87;3.90;;;;;;;;;;5063812;28;20295;-82
2022/04/13 03:26:59;;;;;;;10.07;3.80;;;;;;;;;;5056378;28;20222;-82
2022/04/13 03:29:47;;;;;;;10.00;3.57;;;;;;;;;;5058895;28;20791;-82
2022/04/13 03:32:14;;;;;;;5.63;3.30;;;;;;;;;;5059052;28;20596;-82
2022/04/13 03:34:41;;;;;;;7.07;3.50;;;;;;;;;;5060732;28;20302;-82
2022/04/13 03:37:08;;;;;;;12.20;4.00;;;;;;;;;;5061835;28;20233;-82
2022/04/13 03:39:37;;;;;;;8.37;3.90;;;;;;;;;;5063044;28;20580;-82
2022/04/13 03:42:04;;;;;;;7.33;3.87;;;;;;;;;;5061309;28;20206;-82
2022/04/13 03:44:31;;;;;;;9.87;3.63;;;;;;;;;;5061903;28;20205;-82
2022/04/13 03:46:58;;;;;;;8.10;3.50;;;;;;;;;;5061378;28;20230;-82
2022/04/13 03:49:26;;;;;;;10.73;4.17;;;;;;;;;;5060403;28;20229;-82
2022/04/13 03:51:53;;;;;;;6.00;3.63;;;;;;;;;;5061010;28;20302;-82
2022/04/13 03:54:20;;;;;;;12.43;3.60;;;;;;;;;;5063479;28;20211;-82
2022/04/13 03:56:49;;;;;;;8.70;4.20;;;;;;;;;;5062970;28;20222;-82
2022/04/13 03:59:16;;;;;;;9.80;4.87;;;;;;;;;;5062138;28;20206;-82
2022/04/13 04:01:43;;;;;;;11.93;6.17;;;;;;;;;;5065263;28;20627;-81
2022/04/13 04:04:11;;;;;;;9.30;5.13;;;;;;;;;;5065459;28;20231;-81
2022/04/13 04:06:38;;;;;;;14.53;5.13;;;;;;;;;;5061474;28;20237;-81
2022/04/13 04:09:05;;;;;;;12.97;4.80;;;;;;;;;;5062278;28;20222;-82
2022/04/13 04:11:33;;;;;;;12.03;4.77;;;;;;;;;;5062539;28;20260;-82
2022/04/13 04:14:01;;;;;;;12.03;5.10;;;;;;;;;;5063764;28;20221;-82
2022/04/13 04:16:29;;;;;;;10.40;4.37;;;;;;;;;;5061767;28;20290;-82
2022/04/13 04:18:56;;;;;;;10.40;4.53;;;;;;;;;;5070066;28;21407;-82
2022/04/13 04:21:23;;;;;;;10.43;5.87;;;;;;;;;;5069919;28;20205;-82
2022/04/13 04:23:50;;;;;;;10.47;4.60;;;;;;;;;;5062791;28;20601;-82
2022/04/13 04:26:17;;;;;;;8.93;4.47;;;;;;;;;;5062466;28;20227;-82
2022/04/13 04:28:44;;;;;;;13.10;4.30;;;;;;;;;;5065105;28;20219;-82
2022/04/13 04:31:13;;;;;;;8.30;4.70;;;;;;;;;;5063906;28;20203;-82
2022/04/13 04:33:40;;;;;;;10.53;4.37;;;;;;;;;;5067473;28;20824;-82
2022/04/13 04:36:10;;;;;;;10.30;4.80;;;;;;;;;;5064912;28;20230;-82
2022/04/13 04:38:37;;;;;;;21.57;4.87;;;;;;;;;;5065168;28;20198;-82
2022/04/13 04:41:05;;;;;;;10.60;4.33;;;;;;;;;;5063851;28;20681;-81
2022/04/13 04:43:38;;;;;;;10.47;4.80;;;;;;;;;;5067706;28;20214;-81
2022/04/13 04:46:05;;;;;;;8.13;4.53;;;;;;;;;;5066612;28;20230;-81
2022/04/13 04:48:34;;;;;;;6.50;3.83;;;;;;;;;;5065266;28;20693;-81
2022/04/13 04:51:01;;;;;;;11.50;4.53;;;;;;;;;;5067616;28;20202;-81
2022/04/13 04:53:28;;;;;;;12.87;4.50;;;;;;;;;;5064400;28;20231;-81
2022/04/13 04:55:55;;;;;;;14.33;4.30;;;;;;;;;;5062092;28;20267;-81
2022/04/13 04:58:22;;;;;;;12.73;4.97;;;;;;;;;;5067765;28;20198;-81
2022/04/13 05:00:50;;;;;;;13.27;4.53;;;;;;;;;;5063149;28;20206;-81
2022/04/13 05:03:19;;;;;;;13.40;4.33;;;;;;;;;;5067002;28;20206;-81
2022/04/13 05:05:48;;;;;;;11.47;4.50;;;;;;;;;;5065244;28;20666;-81
2022/04/13 05:08:15;;;;;;;10.40;4.53;;;;;;;;;;5064569;28;20308;-81
2022/04/13 05:10:51;;;;;;;11.07;4.33;;;;;;;;;;5066399;28;20229;-81
2022/04/13 05:13:42;;;;;;;13.60;5.23;;;;;;;;;;5066152;28;20293;-81
2022/04/13 05:16:09;;;;;;;13.83;4.07;;;;;;;;;;5060312;28;20252;-81
2022/04/13 05:21:23;;;;;;;21.83;4.50;;;;;;;;;;5062613;28;20202;-82
2022/04/13 05:24:04;;;;;;;13.20;4.50;;;;;;;;;;5061908;28;20210;-81
2022/04/13 05:29:24;;;;;;;11.10;4.50;;;;;;;;;;5054384;28;20229;-81
2022/04/13 05:31:53;;;;;;;27.90;6.17;;;;;;;;;;5064952;28;20237;-81
2022/04/13 05:34:27;;;;;;;16.93;4.60;;;;;;;;;;5061043;28;20229;-81
2022/04/13 05:36:57;;;;;;;10.00;4.30;;;;;;;;;;5065176;28;20771;-81
2022/04/13 05:39:47;;;;;;;13.23;4.47;;;;;;;;;;5063164;28;20224;-81
2022/04/13 05:42:15;;;;;;;19.60;4.70;;;;;;;;;;5060776;28;20693;-81
2022/04/13 05:44:42;;;;;;;10.37;4.70;;;;;;;;;;5063390;28;20210;-83
2022/04/13 05:50:15;;;;;;;10.47;4.43;;;;;;;;;;5040031;28;20288;-82
2022/04/13 05:52:44;;;;;;;12.57;4.57;;;;;;;;;;5065718;28;20237;-82
2022/04/13 05:55:14;;;;;;;16.40;5.23;;;;;;;;;;5065845;28;20206;-81
2022/04/13 05:57:41;;;;;;;12.33;4.63;;;;;;;;;;5062213;28;20222;-82
2022/04/13 06:00:10;;;;;;;12.00;4.93;;;;;;;;;;5065339;28;20208;-82
2022/04/13 06:02:37;;;;;;;11.63;4.70;;;;;;;;;;5069226;28;20294;-82
2022/04/13 06:05:05;;;;;;;9.83;4.70;;;;;;;;;;5058443;28;20291;-81
2022/04/13 06:07:32;;;;;;;13.10;4.37;;;;;;;;;;5066832;28;20317;-81
2022/04/13 06:10:03;;;;;;;7.67;4.50;;;;;;;;;;5060829;28;20265;-81
2022/04/13 06:12:30;;;;;;;9.83;4.00;;;;;;;;;;5062951;28;20210;-82
2022/04/13 06:15:02;;;;;;;10.83;4.67;;;;;;;;;;5063767;28;20646;-82
2022/04/13 06:17:29;;;;;;;11.03;5.10;;;;;;;;;;5059439;28;20253;-82
2022/04/13 06:19:56;;;;;;;11.77;4.50;;;;;;;;;;5066924;28;20213;-82
2022/04/13 06:22:24;;;;;;;13.27;4.80;;;;;;;;;;5062230;28;20218;-83
2022/04/13 06:24:52;;;;;;;12.37;4.70;;;;;;;;;;5069369;28;20210;-82
2022/04/13 06:27:20;;;;;;;10.70;4.60;;;;;;;;;;5056940;28;20222;-82
2022/04/13 06:29:47;;;;;;;8.93;4.30;;;;;;;;;;5061586;28;20309;-82
2022/04/13 06:32:14;;;;;;;11.10;4.10;;;14.40;99.90;;;;;;5060999;28;20260;-82
2022/04/13 06:34:41;;;;;;;10.83;3.97;;;14.40;99.90;;;;;;5059469;28;20762;-82
2022/04/13 06:37:09;;;;;;;9.70;4.20;;;14.70;99.90;;;;;;5061358;28;20418;-82
2022/04/13 06:39:37;;;;;;;7.47;3.73;;;15.00;99.90;;;;;;5059553;28;20199;-82
2022/04/13 06:42:04;;;;;;;10.77;3.83;;;15.70;99.90;;;;;;5056827;28;20693;-82
2022/04/13 06:44:32;;;;;;;9.17;3.63;;;15.60;99.90;;;;;;5066353;28;20230;-82
2022/04/13 06:47:01;;;;;;;19.40;3.90;;;16.00;99.90;;;;;;5058551;28;20295;-82
2022/04/13 06:49:28;;;;;;;20.67;4.13;;;16.80;99.90;;;;;;5068499;28;20221;-82
2022/04/13 06:51:55;;;;;;;13.73;4.53;;;16.90;99.90;;;;;;5064295;28;20240;-82
2022/04/13 06:54:22;;;;;;;8.00;3.50;;;17.00;99.90;;;;;;5065106;28;20226;-81
2022/04/13 06:56:48;;;;;;;8.03;3.73;;;17.30;99.90;;;;;;5057538;28;20300;-81
2022/04/13 06:59:15;;;;;;;10.53;3.50;;;17.30;99.90;;;;;;5063166;28;20280;-81
2022/04/13 07:01:43;;;;;;;6.53;3.60;;;17.40;99.90;;;;;;5062664;28;20234;-82
2022/04/13 07:04:10;;;;;;;8.90;3.60;;;17.70;99.90;;;;;;5062806;28;20202;-82
2022/04/13 07:06:37;;;;;;;11.00;3.30;;;18.40;99.90;;;;;;5061860;28;20230;-82
2022/04/13 07:09:04;;;;;;;5.57;3.13;;;18.70;99.90;;;;;;5060048;28;20226;-82
2022/04/13 07:11:47;;;;;;;6.93;3.17;;;18.70;99.90;;;;;;5061918;28;20216;-82
2022/04/13 07:14:14;;;;;;;6.60;3.47;;;19.10;99.90;;;;;;5063042;28;20595;-82
2022/04/13 07:16:43;;;;;;;6.37;3.23;;;19.60;99.90;;;;;;5062468;28;20731;-82
2022/04/13 07:19:39;;;;;;;7.53;3.37;;;20.10;99.90;;;;;;5065101;28;20232;-82
2022/04/13 07:22:12;;;;;;;5.93;2.90;;;20.10;99.90;;;;;;5063612;28;20359;-82
2022/04/13 07:24:40;;;;;;;8.17;2.80;;;21.00;99.90;;;;;;5057086;28;20329;-82
2022/04/13 07:27:07;;;;;;;6.43;2.53;;;21.40;99.90;;;;;;5061511;28;20772;-82
2022/04/13 07:29:34;;;;;;;5.03;2.90;;;;;;;;;;5061071;28;20239;-82
2022/04/13 07:32:02;;;;;;;7.83;2.67;;;;;;;;;;5062069;28;20203;-82
2022/04/13 07:34:36;;;;;;;9.97;2.80;;;;;;;;;;5065452;28;20192;-82
2022/04/13 07:37:03;;;;;;;5.47;2.83;;;;;;;;;;5061748;28;20222;-83
2022/04/13 07:39:31;;;;;;;9.47;2.60;;;;;;;;;;5061462;28;20252;-82
2022/04/13 07:41:58;;;;;;;7.70;2.80;;;;;;;;;;5060720;28;20219;-83
2022/04/13 07:44:25;;;;;;;8.60;2.57;;;;;;;;;;5060518;28;21059;-83
2022/04/13 07:46:52;;;;;;;9.10;2.60;;;;;;;;;;5064021;28;20229;-83
2022/04/13 07:49:21;;;;;;;8.07;2.60;;;;;;;;;;5068531;28;20206;-83
2022/04/13 07:51:49;;;;;;;11.07;3.00;;;;;;;;;;5064763;28;20198;-83
2022/04/13 07:54:16;;;;;;;6.93;2.80;;;;;;;;;;5064402;28;20210;-83
2022/04/13 07:56:43;;;;;;;9.07;2.97;;;;;;;;;;5060467;28;21089;-83
2022/04/13 07:59:10;;;;;;;7.60;2.97;;;;;;;;;;5068468;28;20305;-83
2022/04/13 08:01:37;;;;;;;5.40;2.90;;;;;;;;;;5065031;28;20210;-83
2022/04/13 08:04:08;;;;;;;6.33;2.80;;;;;;;;;;5062718;28;20209;-83
2022/04/13 08:06:36;;;;;;;4.57;2.60;;;;;;;;;;5066455;28;20241;-83
2022/04/13 08:09:03;;;;;;;7.50;3.20;;;;;;;;;;5065354;28;20677;-83
2022/04/13 08:11:31;;;;;;;8.60;2.50;;;;;;;;;;5067601;28;20210;-83
2022/04/13 08:13:58;;;;;;;6.40;2.87;;;;;;;;;;5063010;28;20195;-83
2022/04/13 08:16:25;;;;;;;8.33;2.33;;;;;;;;;;5066109;28;20261;-82
2022/04/13 08:18:52;;;;;;;7.30;2.47;;;;;;;;;;5058361;28;20686;-83
2022/04/13 08:21:19;;;;;;;5.10;2.63;;;;;;;;;;5062360;28;20309;-83
2022/04/13 08:23:48;;;;;;;7.60;2.70;;;;;;;;;;5061681;28;20205;-83
2022/04/13 08:26:15;;;;;;;6.77;2.23;;;;;;;;;;5062205;28;20306;-83
2022/04/13 08:28:43;;;;;;;7.60;2.50;;;;;;;;;;5060923;28;20214;-83
2022/04/13 08:31:18;;;;;;;7.73;2.33;;;;;;;;;;5066193;28;20289;-83
2022/04/13 08:33:46;;;;;;;7.30;2.93;;;;;;;;;;5049965;28;20227;-83
2022/04/13 08:36:14;;;;;;;6.87;2.83;;;;;;;;;;5061828;28;20258;-82
2022/04/13 08:38:41;;;;;;;6.60;2.80;;;;;;;;;;5061267;28;20215;-83
2022/04/13 08:41:13;;;;;;;8.53;2.90;;;;;;;;;;5062889;28;20698;-83
2022/04/13 08:43:45;;;;;;;6.57;2.97;;;;;;;;;;5060509;28;20226;-82
2022/04/13 08:46:15;;;;;;;10.67;2.93;;;;;;;;;;5063141;28;20233;-83
2022/04/13 08:48:49;;;;;;;7.60;3.03;;;;;;;;;;5064920;28;20198;-83
2022/04/13 08:51:18;;;;;;;9.17;3.13;;;;;;;;;;5069249;28;20213;-83
2022/04/13 08:53:46;;;;;;;6.10;2.50;;;;;;;;;;5064892;28;20232;-83
2022/04/13 08:56:18;;;;;;;7.57;2.73;;;;;;;;;;5063512;28;20286;-83
2022/04/13 08:58:51;;;;;;;6.77;2.67;;;;;;;;;;5067643;28;20283;-83
2022/04/13 09:01:22;;;;;;;5.67;2.50;;;;;;;;;;5064579;28;20288;-83
2022/04/13 09:03:53;;;;;;;5.17;2.60;;;;;;;;;;5066019;28;20207;-83
2022/04/13 09:06:22;;;;;;;8.73;2.80;;;;;;;;;;5061690;28;20237;-82
2022/04/13 09:08:50;;;;;;;7.13;2.70;;;;;;;;;;5075640;22;20226;-78
2022/04/13 09:11:21;;;;;;;6.53;2.53;;;;;;;;;;5057971;28;20219;-77
2022/04/13 09:13:48;;;;;;;5.53;2.30;;;;;;;;;;5062725;28;20195;-77
2022/04/13 09:16:16;;;;;;;6.03;2.30;;;;;;;;;;5056844;28;20210;-78
2022/04/13 09:18:43;;;;;;;6.50;2.40;;;;;;;;;;5055037;28;20220;-77
2022/04/13 09:21:12;;;;;;;4.17;1.97;;;;;;;;;;5055431;28;20231;-77
2022/04/13 09:23:40;;;;;;;4.70;1.90;;;;;;;;;;5059743;28;20233;-78
2022/04/13 09:26:07;;;;;;;5.57;2.00;;;;;;;;;;5057653;28;20206;-77
2022/04/13 09:28:37;;;;;;;6.07;1.93;;;;;;;;;;5056035;28;20569;-77
2022/04/13 09:31:04;;;;;;;9.67;1.80;;;;;;;;;;5060563;28;20223;-78
2022/04/13 09:33:31;;;;;;;8.03;2.20;;;;;;;;;;5061332;28;20202;-78
2022/04/13 09:35:58;;;;;;;5.70;1.90;;;;;;;;;;5055242;28;20242;-77
2022/04/13 09:38:26;;;;;;;6.60;1.87;;;;;;;;;;5060569;28;20209;-77
2022/04/13 09:40:53;;;;;;;38.07;2.67;;;;;;;;;;5061821;28;20250;-78
2022/04/13 09:43:21;;;;;;;3.80;2.13;;;;;;;;;;5055968;28;20679;-78
2022/04/13 09:45:51;;;;;;;8.00;1.70;;;;;;;;;;5055383;28;20207;-77
2022/04/13 09:48:19;;;;;;;8.00;1.90;;;;;;;;;;5058926;28;20238;-78
2022/04/13 09:50:47;;;;;;;8.80;1.80;;;;;;;;;;5053849;28;20227;-78
2022/04/13 09:53:15;;;;;;;7.77;1.50;;;;;;;;;;5057166;28;20290;-77
2022/04/13 09:55:43;;;;;;;2.83;1.53;;;;;;;;;;5054369;28;20203;-77
2022/04/13 09:58:11;;;;;;;4.20;1.70;;;;;;;;;;5056028;28;20203;-78
2022/04/13 10:00:39;;;;;;;3.73;1.57;;;;;;;;;;5055950;28;20842;-78
2022/04/13 10:03:11;;;;;;;8.13;1.80;;;;;;;;;;5056519;28;20580;-78
2022/04/13 10:05:38;;;;;;;6.33;1.40;;;;;;;;;;5056605;28;20211;-77
2022/04/13 10:08:08;;;;;;;6.30;1.47;;;;;;;;;;5054522;28;20220;-78
2022/04/13 10:10:35;;;;;;;4.33;1.50;;;;;;;;;;5059667;28;20247;-78
2022/04/13 10:13:03;;;;;;;6.67;1.33;;;;;;;;;;5055048;28;20294;-78
2022/04/13 10:15:30;;;;;;;8.70;1.77;;;;;;;;;;5055718;28;20312;-77
2022/04/13 10:18:01;;;;;;;4.27;1.57;;;;;;;;;;5057285;28;20315;-78
2022/04/13 10:20:46;;;;;;;2.57;1.30;;;;;;;;;;5054163;28;20232;-79
2022/04/13 10:23:15;;;;;;;7.53;1.20;;;;;;;;;;5057554;28;20243;-78
2022/04/13 10:25:43;;;;;;;9.27;2.00;;;;;;;;;;5053331;28;20325;-78
2022/04/13 10:28:12;;;;;;;8.03;1.63;;;;;;;;;;5054123;28;20206;-78
2022/04/13 10:30:40;;;;;;;4.53;1.67;;;;;;;;;;5056044;28;20695;-78
2022/04/13 10:33:08;;;;;;;6.53;1.60;;;;;;;;;;5059166;28;20291;-77
2022/04/13 10:35:36;;;;;;;4.70;1.43;;;;;;;;;;5062840;28;20206;-78
2022/04/13 10:38:03;;;;;;;3.90;1.27;;;;;;;;;;5060673;28;20214;-77
2022/04/13 10:40:33;;;;;;;6.07;1.50;;;;;;;;;;5053101;28;20223;-78
2022/04/13 10:43:01;;;;;;;5.47;1.33;;;;;;;;;;5053855;28;20653;-79
2022/04/13 10:45:29;;;;;;;3.53;1.30;;;;;;;;;;5055344;28;20206;-77
2022/04/13 10:48:00;;;;;;;5.03;1.23;;;;;;;;;;5057675;28;20213;-77
2022/04/13 10:50:30;;;;;;;9.37;1.87;;;;;;;;;;5064431;28;20731;-77
2022/04/13 10:52:59;;;;;;;3.77;1.40;;;;;;;;;;5068113;28;20258;-78
2022/04/13 10:55:29;;;;;;;9.13;1.30;;;;;;;;;;5069513;28;20212;-77
2022/04/13 10:57:59;;;;;;;3.47;1.70;;;;;;;;;;5066735;28;20278;-78
2022/04/13 11:00:27;;;;;;;7.73;1.50;;;;;;;;;;5068530;28;20314;-77
2022/04/13 11:02:55;;;;;;;3.17;1.43;;;;;;;;;;5073964;28;20753;-78
2022/04/13 11:05:22;;;;;;;4.70;1.27;;;;;;;;;;5068310;28;20206;-77
2022/04/13 11:07:52;;;;;;;5.77;1.10;;;;;;;;;;5072543;28;20583;-77
2022/04/13 11:10:20;;;;;;;6.50;1.30;;;;;;;;;;5068550;28;20297;-78
2022/04/13 11:12:48;;;;;;;6.20;1.50;;;;;;;;;;5065360;28;20201;-79
2022/04/13 11:15:18;;;;;;;4.93;1.30;;;;;;;;;;5070042;28;20205;-77
2022/04/13 11:17:45;;;;;;;6.43;1.40;;;;;;;;;;5058771;28;20597;-78
2022/04/13 11:20:16;;;;;;;3.27;1.33;;;;;;;;;;5055121;28;20252;-77
2022/04/13 11:22:43;;;;;;;4.83;1.40;;;;;;;;;;5053224;28;20254;-76
2022/04/13 11:25:11;;;;;;;4.47;1.20;;;;;;;;;;5053804;28;20220;-77
2022/04/13 11:27:51;;;;;;;6.67;1.43;;;;;;;;;;5069355;28;20266;-78
2022/04/13 11:30:19;;;;;;;2.80;1.30;;;;;;;;;;5062506;28;20267;-77
2022/04/13 11:32:47;;;;;;;7.93;1.57;;;;;;;;;;5064949;28;20205;-77
2022/04/13 11:35:15;;;;;;;3.50;1.40;;;;;;;;;;5060689;28;20282;-77
2022/04/13 11:37:45;;;;;;;5.63;1.50;;;;;;;;;;5064680;28;20249;-76
2022/04/13 11:40:13;;;;;;;4.10;1.30;;;;;;;;;;5051532;28;20218;-78
2022/04/13 11:42:53;;;;;;;4.10;1.27;;;;;;;;;;5050625;28;20201;-77
2022/04/13 11:45:22;;;;;;;6.27;1.50;;;;;;;;;;5053312;28;20303;-77
2022/04/13 11:47:54;;;;;;;7.07;1.67;;;;;;;;;;5053906;28;20203;-77
2022/04/13 11:50:22;;;;;;;3.60;1.40;;;;;;;;;;5055825;28;20230;-77
2022/04/13 11:52:50;;;;;;;10.57;1.70;;;;;;;;;;5050444;28;20208;-77
2022/04/13 11:55:18;;;;;;;6.57;1.50;;;;;;;;;;5052253;28;20305;-77
2022/04/13 11:58:04;;;;;;;4.80;1.37;;;;;;;;;;5056880;28;20207;-77
2022/04/13 12:00:39;;;;;;;2.23;1.10;;;;;;;;;;5057549;28;20693;-77
2022/04/13 12:03:07;;;;;;;4.23;1.37;;;;;;;;;;5054263;28;20224;-77
2022/04/13 12:05:36;;;;;;;5.60;1.53;;;;;;;;;;5056292;28;20295;-77
2022/04/13 12:08:07;;;;;;;4.87;1.50;;;;;;;;;;5050070;28;20220;-76
2022/04/13 12:10:37;;;;;;;18.90;3.77;;;;;;;;;;5054298;28;20228;-76
2022/04/13 12:13:05;;;;;;;3.77;1.20;;;;;;;;;;5053546;28;20290;-77
2022/04/13 12:15:43;;;;;;;9.23;1.93;;;;;;;;;;5055304;28;20299;-77
2022/04/13 12:18:11;;;;;;;13.33;2.33;;;;;;;;;;5053697;28;20212;-77
2022/04/13 12:20:38;;;;;;;7.87;1.40;;;;;;;;;;5057093;28;20233;-77
2022/04/13 12:23:15;;;;;;;6.10;1.20;;;;;;;;;;5054868;28;20272;-77
2022/04/13 12:25:43;;;;;;;8.97;2.00;;;;;;;;;;5055123;28;21146;-77
2022/04/13 12:28:10;;;;;;;4.83;1.17;;;;;;;;;;5053682;28;20208;-77
2022/04/13 12:30:38;;;;;;;4.50;1.30;;;;;;;;;;5056060;28;20234;-77
2022/04/13 12:33:15;;;;;;;4.60;1.37;;;;;;;;;;5049062;28;21808;-77
2022/04/13 12:35:52;;;;;;;7.37;1.60;;;;;;;;;;5056911;28;20273;-77
2022/04/13 12:38:23;;;;;;;5.27;1.60;;;;;;;;;;5055178;28;20815;-77
2022/04/13 12:40:50;;;;;;;7.87;1.40;;;;;;;;;;5057410;28;20344;-79
2022/04/13 12:43:27;;;;;;;6.37;1.30;;;;;;;;;;5059119;28;20200;-78
2022/04/13 12:45:54;;;;;;;3.80;1.10;;;;;;;;;;5058142;28;20211;-77
2022/04/13 12:48:27;;;;;;;5.17;1.83;;;;;;;;;;5064826;28;20726;-77
2022/04/13 12:50:58;;;;;;;3.37;1.50;;;;;;;;;;5066672;28;20250;-78
2022/04/13 12:53:25;;;;;;;6.10;1.37;;;;;;;;;;5065388;28;20207;-79
2022/04/13 12:55:53;;;;;;;9.87;1.87;;;;;;;;;;5064926;28;20632;-78
2022/04/13 12:58:20;;;;;;;7.00;1.50;;;;;;;;;;5061135;28;20204;-78
2022/04/13 13:00:51;;;;;;;3.80;1.30;;;;;;;;;;5065634;28;20615;-77
2022/04/13 13:03:18;;;;;;;5.03;1.70;;;;;;;;;;5064106;28;20205;-77
2022/04/13 13:05:47;;;;;;;5.07;1.50;;;;;;;;;;5060819;28;20212;-77
2022/04/13 13:08:15;;;;;;;6.43;1.60;;;;;;;;;;5063979;28;20213;-77
2022/04/13 13:10:45;;;;;;;8.87;1.70;;;;;;;;;;5068330;28;20228;-77
2022/04/13 13:13:15;;;;;;;7.90;1.60;;;;;;;;;;5062639;28;20206;-77
2022/04/13 13:15:42;;;;;;;4.80;1.53;;;;;;;;;;5067576;28;20213;-77
2022/04/13 13:18:10;;;;;;;6.90;1.50;;;;;;;;;;5067021;28;20208;-77
2022/04/13 13:20:53;;;;;;;8.63;2.10;;;;;;;;;;5065179;28;20220;-77
2022/04/13 13:23:25;;;;;;;5.87;1.67;;;;;;;;;;5068868;28;20571;-77
2022/04/13 13:25:52;;;;;;;3.87;1.50;;;;;;;;;;5062658;28;20200;-78
2022/04/13 13:28:23;;;;;;;6.47;1.40;;;;;;;;;;5062564;28;20199;-77
2022/04/13 13:30:52;;;;;;;8.67;1.70;;;;;;;;;;5063098;28;20294;-77
2022/04/13 13:33:20;;;;;;;6.40;1.60;;;;;;;;;;5060371;28;20205;-77
2022/04/13 13:35:47;;;;;;;11.77;1.87;;;;;;;;;;5061019;28;20576;-77
2022/04/13 13:38:16;;;;;;;4.23;1.50;;;;;;;;;;5061852;28;20240;-77
2022/04/13 13:40:47;;;;;;;4.33;1.60;;;;;;;;;;5063608;28;20232;-77
2022/04/13 13:43:29;;;;;;;6.40;1.53;;;;;;;;;;5064533;28;20204;-77
2022/04/13 13:45:56;;;;;;;4.87;1.57;;;;;;;;;;5063194;28;20295;-77
2022/04/13 13:48:25;;;;;;;7.00;1.50;;;;;;;;;;5063907;28;20640;-76
2022/04/13 13:50:53;;;;;;;6.77;1.77;;;;;;;;;;5061780;28;20220;-77
2022/04/13 13:53:21;;;;;;;6.07;1.67;;;;;;;;;;5064868;28;20308;-77
2022/04/13 13:55:50;;;;;;;7.83;1.40;;;;;;;;;;5069325;28;20245;-77
2022/04/13 13:58:18;;;;;;;9.57;1.63;;;;;;;;;;5067989;28;20575;-78
2022/04/13 14:00:45;;;;;;;5.20;1.60;;;;;;;;;;5070184;28;20304;-78
2022/04/13 14:03:13;;;;;;;8.90;1.57;;;;;;;;;;5065177;28;20201;-78
2022/04/13 14:05:41;;;;;;;8.50;1.73;;;;;;;;;;5065199;28;20207;-77
2022/04/13 14:08:10;;;;;;;5.23;1.60;;;;;;;;;;5062307;28;20236;-77
2022/04/13 14:10:38;;;;;;;13.13;2.20;;;;;;;;;;5053146;28;20480;-78
2022/04/13 14:13:07;;;;;;;8.90;1.80;;;;;;;;;;5053076;28;20202;-78
2022/04/13 14:15:34;;;;;;;9.47;2.10;;;;;;;;;;5060115;28;20212;-77
2022/04/13 14:18:02;;;;;;;5.57;1.80;;;;;;;;;;5059851;28;20296;-77
2022/04/13 14:20:29;;;;;;;8.37;1.77;;;;;;;;;;5058910;28;20776;-77
2022/04/13 14:22:56;;;;;;;10.43;2.00;;;;;;;;;;5059996;28;20287;-77
2022/04/13 14:25:24;;;;;;;8.63;1.80;;;;;;;;;;5057405;28;20292;-78
2022/04/13 14:27:52;;;;;;;11.73;1.80;;;;;;;;;;5057607;28;20203;-77
2022/04/13 14:30:21;;;;;;;4.27;1.57;;;;;;;;;;5061383;28;20253;-78
2022/04/13 14:32:49;;;;;;;7.27;1.60;;;;;;;;;;5054253;28;20228;-77
2022/04/13 14:35:17;;;;;;;4.40;1.47;;;;;;;;;;5065728;28;20693;-78
2022/04/13 14:37:45;;;;;;;7.10;1.80;;;;;;;;;;5065763;28;20660;-78
2022/04/13 14:40:13;;;;;;;7.20;1.70;;;;;;;;;;5066623;28;20226;-77
2022/04/13 14:42:40;;;;;;;6.67;2.10;;;;;;;;;;5058638;28;20214;-78
2022/04/13 14:45:08;;;;;;;13.90;2.10;;;;;;;;;;5053910;28;20666;-77
2022/04/13 14:47:36;;;;;;;7.43;2.07;;;;;;;;;;5056435;28;20292;-78
2022/04/13 14:50:06;;;;;;;8.97;1.90;;;;;;;;;;5053335;28;20320;-78
2022/04/13 14:52:34;;;;;;;7.73;2.20;;;;;;;;;;5052810;28;20195;-78